createdAt,value
2023-04-06T00:00:05.590Z,47.83
2023-04-06T00:02:37.759Z,47.84
2023-04-06T00:05:08.117Z,47.79
2023-04-06T00:07:36.535Z,47.91
2023-04-06T00:10:06.087Z,47.94
2023-04-06T00:12:34.235Z,48.06
2023-04-06T00:15:02.871Z,48.21
2023-04-06T00:17:31.028Z,48.31
2023-04-06T00:19:59.126Z,48.44
2023-04-06T00:22:28.571Z,48.57
2023-04-06T00:24:56.694Z,48.75
2023-04-06T00:27:24.736Z,48.86
2023-04-06T00:29:52.893Z,48.96
2023-04-06T00:32:21.227Z,49.11
2023-04-06T00:34:49.400Z,49.16
2023-04-06T00:37:17.515Z,49.65
2023-04-06T00:39:47.036Z,49.76
2023-04-06T00:42:15.639Z,49.81
2023-04-06T00:44:43.942Z,49.86
2023-04-06T00:47:12.291Z,49.98
2023-04-06T00:49:40.852Z,50.02
2023-04-06T00:52:10.359Z,50.05
2023-04-06T00:54:38.888Z,50.08
2023-04-06T00:57:08.958Z,50.30
2023-04-06T00:59:37.288Z,50.40
2023-04-06T01:02:08.885Z,50.78
2023-04-06T01:04:44.147Z,50.75
2023-04-06T01:07:20.925Z,50.85
2023-04-06T01:10:03.940Z,51.01
2023-04-06T01:12:35.141Z,51.27
2023-04-06T01:15:08.580Z,51.44
2023-04-06T01:17:39.427Z,51.67
2023-04-06T01:20:13.350Z,51.65
2023-04-06T01:22:43.393Z,51.66
2023-04-06T01:25:13.252Z,51.60
2023-04-06T01:28:01.625Z,51.53
2023-04-06T01:30:46.122Z,51.38
2023-04-06T01:33:26.578Z,51.43
2023-04-06T01:36:02.079Z,51.54
2023-04-06T01:38:32.221Z,51.62
2023-04-06T01:41:00.322Z,51.66
2023-04-06T01:43:33.389Z,51.58
2023-04-06T01:46:07.632Z,51.52
2023-04-06T01:48:38.597Z,51.60
2023-04-06T01:51:27.682Z,51.59
2023-04-06T01:54:03.591Z,51.43
2023-04-06T01:56:40.961Z,51.31
2023-04-06T01:59:29.374Z,51.27
2023-04-06T02:01:58.800Z,51.21
2023-04-06T02:04:28.899Z,51.26
2023-04-06T02:07:07.365Z,51.37
2023-04-06T02:09:37.213Z,51.33
2023-04-06T02:12:08.280Z,51.33
2023-04-06T02:14:36.600Z,51.56
2023-04-06T02:17:04.681Z,51.64
2023-04-06T02:19:33.271Z,51.75
2023-04-06T02:22:01.407Z,51.67
2023-04-06T02:24:29.515Z,51.87
2023-04-06T02:26:58.980Z,51.96
2023-04-06T02:29:27.056Z,51.92
2023-04-06T02:31:55.350Z,52.17
2023-04-06T02:34:24.284Z,52.15
2023-04-06T02:36:53.565Z,52.37
2023-04-06T02:39:21.716Z,52.42
2023-04-06T02:41:49.857Z,52.61
2023-04-06T02:44:23.816Z,52.69
2023-04-06T02:46:51.922Z,52.62
2023-04-06T02:49:20.063Z,52.77
2023-04-06T02:51:48.234Z,52.94
2023-04-06T02:54:21.238Z,52.86
2023-04-06T02:56:49.323Z,52.83
2023-04-06T02:59:17.555Z,52.84
2023-04-06T03:01:55.364Z,52.89
2023-04-06T03:04:26.381Z,52.90
2023-04-06T03:06:58.779Z,53.08
2023-04-06T03:09:36.221Z,52.97
2023-04-06T03:12:04.502Z,52.91
2023-04-06T03:14:39.646Z,52.96
2023-04-06T03:17:09.135Z,53.21
2023-04-06T03:19:37.496Z,53.20
2023-04-06T03:22:06.098Z,53.47
2023-04-06T03:24:34.434Z,53.67
2023-04-06T03:27:02.575Z,53.75
2023-04-06T03:29:30.962Z,53.75
2023-04-06T03:31:59.172Z,53.87
2023-04-06T03:34:37.252Z,53.84
2023-04-06T03:37:10.285Z,53.87
2023-04-06T03:39:44.269Z,53.95
2023-04-06T03:42:17.611Z,53.94
2023-04-06T03:44:53.859Z,53.98
2023-04-06T03:47:22.328Z,54.01
2023-04-06T03:49:51.846Z,54.09
2023-04-06T03:52:20.231Z,54.03
2023-04-06T03:54:48.303Z,53.88
2023-04-06T03:57:16.373Z,53.85
2023-04-06T03:59:44.615Z,54.10
2023-04-06T04:02:12.777Z,54.42
2023-04-06T04:04:41.292Z,54.19
2023-04-06T04:07:10.868Z,54.00
2023-04-06T04:09:39.149Z,53.75
2023-04-06T04:12:07.767Z,53.72
2023-04-06T04:14:36.565Z,53.72
2023-04-06T04:17:04.750Z,53.78
2023-04-06T04:19:32.898Z,53.75
2023-04-06T04:22:01.106Z,53.61
2023-04-06T04:24:36.355Z,53.54
2023-04-06T04:27:05.733Z,53.59
2023-04-06T04:29:34.672Z,53.56
2023-04-06T04:32:07.423Z,53.61
2023-04-06T04:34:35.637Z,53.49
2023-04-06T04:37:06.286Z,53.64
2023-04-06T04:39:47.405Z,53.72
2023-04-06T04:42:15.878Z,53.75
2023-04-06T04:44:49.320Z,53.67
2023-04-06T04:47:23.237Z,53.52
2023-04-06T04:49:51.315Z,53.49
2023-04-06T04:52:23.828Z,53.58
2023-04-06T04:55:03.469Z,53.43
2023-04-06T04:57:31.856Z,53.30
2023-04-06T05:00:00.047Z,53.07
2023-04-06T05:02:28.294Z,53.30
2023-04-06T05:05:10.591Z,53.16
2023-04-06T05:07:40.604Z,53.01
2023-04-06T05:10:14.403Z,52.97
2023-04-06T05:12:52.108Z,52.94
2023-04-06T05:15:20.566Z,52.85
2023-04-06T05:17:51.362Z,52.78
2023-04-06T05:20:24.319Z,52.71
2023-04-06T05:22:53.386Z,52.66
2023-04-06T05:25:22.940Z,52.74
2023-04-06T05:27:54.271Z,52.69
2023-04-06T05:30:34.149Z,52.60
2023-04-06T05:33:02.298Z,52.62
2023-04-06T05:35:38.936Z,52.53
2023-04-06T05:38:12.073Z,52.57
2023-04-06T05:40:42.179Z,52.45
2023-04-06T05:43:14.150Z,52.40
2023-04-06T05:45:46.560Z,52.27
2023-04-06T05:48:14.938Z,52.29
2023-04-06T05:50:43.029Z,52.23
2023-04-06T05:53:14.086Z,52.18
2023-04-06T05:55:48.105Z,52.17
2023-04-06T05:58:19.798Z,52.04
2023-04-06T06:00:49.382Z,51.85
2023-04-06T06:03:19.057Z,51.60
2023-04-06T06:05:52.780Z,51.53
2023-04-06T06:08:28.376Z,51.30
2023-04-06T06:10:58.794Z,51.17
2023-04-06T06:13:27.249Z,50.93
2023-04-06T06:15:56.549Z,50.47
2023-04-06T06:18:25.416Z,49.94
2023-04-06T06:20:55.565Z,49.61
2023-04-06T06:23:23.781Z,49.35
2023-04-06T06:25:51.989Z,49.24
2023-04-06T06:28:22.412Z,49.05
2023-04-06T06:30:50.461Z,48.82
2023-04-06T06:33:22.819Z,48.47
2023-04-06T06:35:54.064Z,48.02
2023-04-06T06:38:23.760Z,47.93
2023-04-06T06:40:52.825Z,47.43
2023-04-06T06:43:23.301Z,47.44
2023-04-06T06:45:57.508Z,47.27
2023-04-06T06:48:26.026Z,46.78
2023-04-06T06:50:55.302Z,45.74
2023-04-06T06:53:23.547Z,46.03
2023-04-06T06:55:51.711Z,45.67
2023-04-06T06:58:20.808Z,44.64
2023-04-06T07:00:50.975Z,44.83
2023-04-06T07:03:19.143Z,44.70
2023-04-06T07:05:54.282Z,44.33
2023-04-06T07:08:24.999Z,44.51
2023-04-06T07:10:54.478Z,44.25
2023-04-06T07:13:23.698Z,43.90
2023-04-06T07:15:56.077Z,43.51
2023-04-06T07:18:24.729Z,43.28
2023-04-06T07:20:52.981Z,43.10
2023-04-06T07:23:21.432Z,42.55
2023-04-06T07:25:52.006Z,41.94
2023-04-06T07:28:20.248Z,41.09
2023-04-06T07:30:48.508Z,40.32
2023-04-06T07:33:18.492Z,39.85
2023-04-06T07:35:47.503Z,38.33
2023-04-06T07:38:16.026Z,37.60
2023-04-06T07:40:44.763Z,36.31
2023-04-06T07:43:13.260Z,36.73
2023-04-06T07:45:41.703Z,36.63
2023-04-06T07:48:10.062Z,36.11
2023-04-06T07:50:39.954Z,36.50
2023-04-06T07:53:08.436Z,35.69
2023-04-06T07:55:36.861Z,34.64
2023-04-06T07:58:04.979Z,33.94
2023-04-06T08:00:33.328Z,34.31
2023-04-06T08:03:01.654Z,34.07
2023-04-06T08:05:30.229Z,32.67
2023-04-06T08:07:59.724Z,33.27
2023-04-06T08:10:27.850Z,33.66
2023-04-06T08:12:55.928Z,33.22
2023-04-06T08:15:23.998Z,33.25
2023-04-06T08:17:52.231Z,33.63
2023-04-06T08:20:20.370Z,33.01
2023-04-06T08:22:48.882Z,33.60
2023-04-06T08:25:19.681Z,32.06
2023-04-06T08:27:47.840Z,31.52
2023-04-06T08:30:16.813Z,31.57
2023-04-06T08:32:45.459Z,31.83
2023-04-06T08:35:13.981Z,31.03
2023-04-06T08:37:42.157Z,31.00
2023-04-06T08:40:10.942Z,31.43
2023-04-06T08:42:46.320Z,30.36
2023-04-06T08:45:16.647Z,32.12
2023-04-06T08:47:44.966Z,31.39
2023-04-06T08:50:13.545Z,31.18
2023-04-06T08:52:42.676Z,29.53
2023-04-06T08:55:11.230Z,27.48
2023-04-06T08:57:41.458Z,28.16
2023-04-06T09:00:12.731Z,28.73
2023-04-06T09:02:42.965Z,29.09
2023-04-06T09:05:11.952Z,29.24
2023-04-06T09:07:40.122Z,28.74
2023-04-06T09:10:09.287Z,28.61
2023-04-06T09:12:37.778Z,28.10
2023-04-06T09:15:08.634Z,27.74
2023-04-06T09:17:37.840Z,27.18
2023-04-06T09:20:07.175Z,27.26
2023-04-06T09:22:38.809Z,27.30
2023-04-06T09:25:08.390Z,25.13
2023-04-06T09:27:37.761Z,24.43
2023-04-06T09:30:09.375Z,25.04
2023-04-06T09:32:48.047Z,25.85
2023-04-06T09:35:16.750Z,25.40
2023-04-06T09:37:45.332Z,24.87
2023-04-06T09:40:14.478Z,24.52
2023-04-06T09:42:43.553Z,24.60
2023-04-06T09:45:13.508Z,24.18
2023-04-06T09:47:42.625Z,24.59
2023-04-06T09:50:13.042Z,23.75
2023-04-06T09:52:44.376Z,23.53
2023-04-06T09:55:12.912Z,22.45
2023-04-06T09:57:47.568Z,21.70
2023-04-06T10:00:23.172Z,20.70
2023-04-06T10:02:58.630Z,20.31
2023-04-06T10:05:36.185Z,20.66
2023-04-06T10:08:08.382Z,20.37
2023-04-06T10:10:36.586Z,20.36
2023-04-06T10:13:06.915Z,21.21
2023-04-06T10:15:36.504Z,20.88
2023-04-06T10:18:05.770Z,21.21
2023-04-06T10:20:40.923Z,19.11
2023-04-06T10:23:16.943Z,19.15
2023-04-06T10:25:54.740Z,18.02
2023-04-06T10:28:22.869Z,18.93
2023-04-06T10:30:59.670Z,18.77
2023-04-06T10:33:28.410Z,17.48
2023-04-06T10:35:58.155Z,17.32
2023-04-06T10:38:39.682Z,17.25
2023-04-06T10:41:11.207Z,16.76
2023-04-06T10:43:41.059Z,16.13
2023-04-06T10:46:11.914Z,16.58
2023-04-06T10:48:42.071Z,16.25
2023-04-06T10:51:14.271Z,15.86
2023-04-06T10:53:43.964Z,16.13
2023-04-06T10:56:13.465Z,16.51
2023-04-06T10:58:47.045Z,15.46
2023-04-06T11:01:17.256Z,15.18
2023-04-06T11:03:46.543Z,15.69
2023-04-06T11:06:20.793Z,16.31
2023-04-06T11:08:49.225Z,15.90
2023-04-06T11:11:20.211Z,16.10
2023-04-06T11:13:50.674Z,15.13
2023-04-06T11:16:21.488Z,15.32
2023-04-06T11:18:54.601Z,15.32
2023-04-06T11:21:34.135Z,15.39
2023-04-06T11:24:13.188Z,15.27
2023-04-06T11:26:42.860Z,16.09
2023-04-06T11:29:11.357Z,15.50
2023-04-06T11:31:46.877Z,15.25
2023-04-06T11:34:16.016Z,15.57
2023-04-06T11:36:44.890Z,15.40
2023-04-06T11:39:14.676Z,15.04
2023-04-06T11:41:42.879Z,14.81
2023-04-06T11:44:11.230Z,14.80
2023-04-06T11:46:39.422Z,14.39
2023-04-06T11:49:09.049Z,14.39
2023-04-06T11:51:38.771Z,14.07
2023-04-06T11:54:06.975Z,14.61
2023-04-06T11:56:35.029Z,14.48
2023-04-06T11:59:03.247Z,14.67
2023-04-06T12:01:34.139Z,13.99
2023-04-06T12:04:05.209Z,14.50
2023-04-06T12:06:34.719Z,14.84
2023-04-06T12:09:02.883Z,15.09
2023-04-06T12:11:31.057Z,15.28
2023-04-06T12:14:00.373Z,16.23
2023-04-06T12:16:28.585Z,15.67
2023-04-06T12:18:57.032Z,15.64
2023-04-06T12:21:25.436Z,16.38
2023-04-06T12:23:55.031Z,16.54
2023-04-06T12:26:23.371Z,16.93
2023-04-06T12:28:51.480Z,16.79
2023-04-06T12:31:20.565Z,16.77
2023-04-06T12:33:49.569Z,15.53
2023-04-06T12:36:20.083Z,15.26
2023-04-06T12:39:14.636Z,16.33
2023-04-06T12:41:42.703Z,16.00
2023-04-06T12:44:10.979Z,15.25
2023-04-06T12:46:39.161Z,16.23
2023-04-06T12:49:07.297Z,15.25
2023-04-06T12:51:35.505Z,14.73
2023-04-06T12:54:03.696Z,14.75
2023-04-06T12:56:33.685Z,15.32
2023-04-06T12:59:02.279Z,14.97
2023-04-06T13:01:30.785Z,14.61
2023-04-06T13:04:00.234Z,15.16
2023-04-06T13:06:31.058Z,15.75
2023-04-06T13:08:59.605Z,16.13
2023-04-06T13:11:28.724Z,16.33
2023-04-06T13:13:58.483Z,16.03
2023-04-06T13:16:26.722Z,15.83
2023-04-06T13:18:55.238Z,15.84
2023-04-06T13:21:23.349Z,16.24
2023-04-06T13:23:51.921Z,16.49
2023-04-06T13:26:20.102Z,16.53
2023-04-06T13:28:52.394Z,16.19
2023-04-06T13:31:22.134Z,16.33
2023-04-06T13:33:50.475Z,16.43
2023-04-06T13:36:18.612Z,16.25
2023-04-06T13:38:47.831Z,16.61
2023-04-06T13:41:21.929Z,16.54
2023-04-06T13:43:50.766Z,16.79
2023-04-06T13:46:19.026Z,16.86
2023-04-06T13:48:49.087Z,16.77
2023-04-06T13:51:17.338Z,16.73
2023-04-06T13:53:45.608Z,17.02
2023-04-06T13:56:13.620Z,17.22
2023-04-06T13:58:41.840Z,17.19
2023-04-06T14:01:11.399Z,17.09
2023-04-06T14:03:40.562Z,17.14
2023-04-06T14:08:45.448Z,17.48
2023-04-06T14:11:14.101Z,17.29
2023-04-06T14:13:42.942Z,17.09
2023-04-06T14:16:11.178Z,16.70
2023-04-06T14:18:39.732Z,16.99
2023-04-06T14:21:07.874Z,16.38
2023-04-06T14:23:38.012Z,16.93
2023-04-06T14:26:07.497Z,16.93
2023-04-06T14:28:35.975Z,17.25
2023-04-06T14:31:11.364Z,17.77
2023-04-06T14:33:39.451Z,17.91
2023-04-06T14:36:08.131Z,18.51
2023-04-06T14:38:37.659Z,17.79
2023-04-06T14:41:06.034Z,18.11
2023-04-06T14:43:34.221Z,17.62
2023-04-06T14:46:03.068Z,17.16
2023-04-06T14:48:31.321Z,17.51
2023-04-06T14:50:59.699Z,17.96
2023-04-06T14:53:28.786Z,18.23
2023-04-06T14:55:58.565Z,18.69
2023-04-06T14:58:27.725Z,18.21
2023-04-06T15:00:58.908Z,18.41
2023-04-06T15:03:27.261Z,19.12
2023-04-06T15:05:55.890Z,18.97
2023-04-06T15:08:24.195Z,19.37
2023-04-06T15:10:52.707Z,18.93
2023-04-06T15:13:22.164Z,18.99
2023-04-06T15:15:53.210Z,19.44
2023-04-06T15:18:22.341Z,18.96
2023-04-06T15:20:50.708Z,19.27
2023-04-06T15:23:20.863Z,19.39
2023-04-06T15:25:49.279Z,20.05
2023-04-06T15:28:17.360Z,20.05
2023-04-06T15:30:46.796Z,19.92
2023-04-06T15:33:16.261Z,19.92
2023-04-06T15:35:44.303Z,20.11
2023-04-06T15:38:12.546Z,20.36
2023-04-06T15:40:45.725Z,20.15
2023-04-06T15:43:14.402Z,20.29
2023-04-06T15:45:58.172Z,20.31
2023-04-06T15:48:26.644Z,20.93
2023-04-06T15:51:00.632Z,21.39
2023-04-06T15:53:28.990Z,21.17
2023-04-06T15:56:01.352Z,21.62
2023-04-06T15:58:29.594Z,21.63
2023-04-06T16:00:59.187Z,21.60
2023-04-06T16:03:27.641Z,21.93
2023-04-06T16:06:08.162Z,21.96
2023-04-06T16:08:40.559Z,21.98
2023-04-06T16:11:09.200Z,22.42
2023-04-06T16:13:37.870Z,22.32
2023-04-06T16:16:08.191Z,22.44
2023-04-06T16:18:37.349Z,22.43
2023-04-06T16:21:05.582Z,22.34
2023-04-06T16:23:34.266Z,22.71
2023-04-06T16:26:02.491Z,22.76
2023-04-06T16:28:31.460Z,23.19
2023-04-06T16:30:59.493Z,23.11
2023-04-06T16:33:28.920Z,23.37
2023-04-06T16:35:56.936Z,23.40
2023-04-06T16:38:25.781Z,23.40
2023-04-06T16:41:01.644Z,23.46
2023-04-06T16:43:29.806Z,23.23
2023-04-06T16:45:57.846Z,23.45
2023-04-06T16:48:25.976Z,23.72
2023-04-06T16:50:56.241Z,23.55
2023-04-06T16:53:24.340Z,23.96
2023-04-06T16:55:52.478Z,23.58
2023-04-06T16:58:20.577Z,23.66
2023-04-06T17:00:48.616Z,23.75
2023-04-06T17:03:16.962Z,24.01
2023-04-06T17:05:45.455Z,24.48
2023-04-06T17:08:14.885Z,24.35
2023-04-06T17:13:14.957Z,24.35
2023-04-06T17:15:44.242Z,24.65
2023-04-06T17:18:12.863Z,24.79
2023-04-06T17:20:41.355Z,25.40
2023-04-06T17:23:09.452Z,25.39
2023-04-06T17:25:39.024Z,25.33
2023-04-06T17:28:07.158Z,25.29
2023-04-06T17:30:35.297Z,25.40
2023-04-06T17:33:03.672Z,25.84
2023-04-06T17:35:31.816Z,26.79
2023-04-06T17:37:59.888Z,27.37
2023-04-06T17:40:27.943Z,27.79
2023-04-06T17:42:57.577Z,28.26
2023-04-06T17:45:25.898Z,29.24
2023-04-06T17:47:53.912Z,29.57
2023-04-06T17:50:22.114Z,30.32
2023-04-06T17:52:52.053Z,31.04
2023-04-06T17:55:22.490Z,31.18
2023-04-06T17:57:51.374Z,31.56
2023-04-06T18:00:24.347Z,31.91
2023-04-06T18:02:54.404Z,32.38
2023-04-06T18:05:43.795Z,33.07
2023-04-06T18:08:12.761Z,33.36
2023-04-06T18:10:42.335Z,33.28
2023-04-06T18:13:11.760Z,34.00
2023-04-06T18:15:41.383Z,34.31
2023-04-06T18:18:09.580Z,34.38
2023-04-06T18:20:41.260Z,34.61
2023-04-06T18:23:09.353Z,35.18
2023-04-06T18:25:39.768Z,35.83
2023-04-06T18:28:08.451Z,36.38
2023-04-06T18:30:36.576Z,36.86
2023-04-06T18:33:07.643Z,36.94
2023-04-06T18:35:35.922Z,37.47
2023-04-06T18:38:04.033Z,37.59
2023-04-06T18:40:33.177Z,37.46
2023-04-06T18:43:01.884Z,37.68
2023-04-06T18:45:30.002Z,38.30
2023-04-06T18:47:58.222Z,38.63
2023-04-06T18:50:27.704Z,38.49
2023-04-06T18:52:56.129Z,39.19
2023-04-06T18:55:24.177Z,39.27
2023-04-06T18:57:52.316Z,39.94
2023-04-06T19:00:20.694Z,40.61
2023-04-06T19:02:49.183Z,41.13
2023-04-06T19:05:17.365Z,40.78
2023-04-06T19:07:52.399Z,40.86
2023-04-06T19:10:20.996Z,40.86
2023-04-06T19:12:49.719Z,41.39
2023-04-06T19:15:17.892Z,41.69
2023-04-06T19:17:45.969Z,42.41
2023-04-06T19:20:14.153Z,42.44
2023-04-06T19:22:42.264Z,42.94
2023-04-06T19:25:12.155Z,42.74
2023-04-06T19:27:40.380Z,42.62
2023-04-06T19:30:09.840Z,42.84
2023-04-06T19:32:38.594Z,43.00
2023-04-06T19:35:09.632Z,43.45
2023-04-06T19:37:38.112Z,43.69
2023-04-06T19:40:10.444Z,43.61
2023-04-06T19:42:39.904Z,44.12
2023-04-06T19:45:09.004Z,44.26
2023-04-06T19:47:38.175Z,44.61
2023-04-06T19:50:07.488Z,45.03
2023-04-06T19:52:35.854Z,45.09
2023-04-06T19:55:04.331Z,45.61
2023-04-06T19:57:32.412Z,45.99
2023-04-06T20:00:01.819Z,45.90
2023-04-06T20:02:37.724Z,46.14
2023-04-06T20:05:06.538Z,46.19
2023-04-06T20:07:34.577Z,46.30
2023-04-06T20:10:06.693Z,46.10
2023-04-06T20:12:36.082Z,46.71
2023-04-06T20:15:06.350Z,46.58
2023-04-06T20:17:34.554Z,46.75
2023-04-06T20:20:02.611Z,46.89
2023-04-06T20:22:30.848Z,47.01
2023-04-06T20:24:58.916Z,47.03
2023-04-06T20:27:27.020Z,47.51
2023-04-06T20:29:55.104Z,47.48
2023-04-06T20:32:24.640Z,47.45
2023-04-06T20:34:53.589Z,47.79
2023-04-06T20:37:24.459Z,47.84
2023-04-06T20:39:52.624Z,48.17
2023-04-06T20:42:21.647Z,48.28
2023-04-06T20:44:49.740Z,48.63
2023-04-06T20:47:17.904Z,48.64
2023-04-06T20:49:47.383Z,48.54
2023-04-06T20:52:16.222Z,48.61
2023-04-06T20:54:44.381Z,48.84
2023-04-06T20:57:12.544Z,49.09
2023-04-06T20:59:40.722Z,49.29
2023-04-06T21:02:09.178Z,49.62
2023-04-06T21:04:38.127Z,49.55
2023-04-06T21:07:08.376Z,50.17
2023-04-06T21:09:38.468Z,49.85
2023-04-06T21:12:07.746Z,50.31
2023-04-06T21:14:36.616Z,50.13
2023-04-06T21:17:05.860Z,50.20
2023-04-06T21:19:33.970Z,50.36
2023-04-06T21:22:02.048Z,50.61
2023-04-06T21:24:31.536Z,50.61
2023-04-06T21:26:59.645Z,50.57
2023-04-06T21:29:27.767Z,50.65
2023-04-06T21:31:55.883Z,50.69
2023-04-06T21:34:23.954Z,50.84
2023-04-06T21:36:52.076Z,50.58
2023-04-06T21:39:20.346Z,50.61
2023-04-06T21:41:49.807Z,51.00
2023-04-06T21:44:18.139Z,50.84
2023-04-06T21:46:46.389Z,50.82
2023-04-06T21:49:14.433Z,50.76
2023-04-06T21:51:42.576Z,50.76
2023-04-06T21:54:10.711Z,50.59
2023-04-06T21:56:39.510Z,50.77
2023-04-06T21:59:08.925Z,50.72
2023-04-06T22:01:37.100Z,50.88
2023-04-06T22:04:05.409Z,51.27
2023-04-06T22:06:33.525Z,50.90
2023-04-06T22:09:02.002Z,50.97
2023-04-06T22:11:30.148Z,50.77
2023-04-06T22:13:58.218Z,51.17
2023-04-06T22:16:27.763Z,50.76
2023-04-06T22:18:55.844Z,50.97
2023-04-06T22:21:23.869Z,50.93
2023-04-06T22:23:52.277Z,50.81
2023-04-06T22:26:20.310Z,50.83
2023-04-06T22:28:48.389Z,51.27
2023-04-06T22:31:16.531Z,51.48
2023-04-06T22:33:45.934Z,51.46
2023-04-06T22:36:14.074Z,51.49
2023-04-06T22:38:43.962Z,51.75
2023-04-06T22:41:12.043Z,52.17
2023-04-06T22:43:40.092Z,51.93
2023-04-06T22:46:08.187Z,51.73
2023-04-06T22:48:36.261Z,51.67
2023-04-06T22:51:06.106Z,52.07
2023-04-06T22:53:34.141Z,52.02
2023-04-06T22:56:02.432Z,51.82
2023-04-06T22:58:30.477Z,51.74
2023-04-06T23:00:58.520Z,51.53
2023-04-06T23:03:27.303Z,51.43
2023-04-06T23:05:55.464Z,51.17
2023-04-06T23:08:24.891Z,51.21
2023-04-06T23:10:52.919Z,51.27
2023-04-06T23:13:21.028Z,51.28
2023-04-06T23:15:49.456Z,51.17
2023-04-06T23:18:17.515Z,51.00
2023-04-06T23:20:45.506Z,51.21
2023-04-06T23:23:13.561Z,51.27
2023-04-06T23:25:43.275Z,51.24
2023-04-06T23:28:11.349Z,51.22
2023-04-06T23:30:39.389Z,51.06
2023-04-06T23:33:07.449Z,51.01
2023-04-06T23:35:35.675Z,50.78
2023-04-06T23:38:03.684Z,50.68
2023-04-06T23:40:31.748Z,50.42
2023-04-06T23:43:01.180Z,50.39
2023-04-06T23:45:29.236Z,50.38
2023-04-06T23:47:57.442Z,50.08
2023-04-06T23:50:25.657Z,50.03
2023-04-06T23:52:53.693Z,50.24
2023-04-06T23:55:21.709Z,50.18
2023-04-06T23:57:49.726Z,50.35
